createdAt,value
2022-10-24T00:01:30.539Z,11.86
2022-10-24T00:03:59.179Z,11.80
2022-10-24T00:06:27.162Z,11.71
2022-10-24T00:08:55.127Z,11.66
2022-10-24T00:11:24.346Z,11.62
2022-10-24T00:13:52.452Z,11.54
2022-10-24T00:16:21.777Z,11.44
2022-10-24T00:18:49.739Z,11.33
2022-10-24T00:21:17.747Z,11.24
2022-10-24T00:23:45.713Z,11.17
2022-10-24T00:26:13.882Z,11.11
2022-10-24T00:28:42.097Z,11.04
2022-10-24T00:31:10.506Z,11.00
2022-10-24T00:33:39.864Z,10.94
2022-10-24T00:36:12.121Z,10.86
2022-10-24T00:38:40.104Z,10.79
2022-10-24T00:41:08.002Z,10.70
2022-10-24T00:43:35.981Z,10.60
2022-10-24T00:46:04.252Z,10.54
2022-10-24T00:48:33.707Z,10.49
2022-10-24T00:51:05.876Z,10.40
2022-10-24T00:53:34.636Z,10.36
2022-10-24T00:56:03.258Z,10.34
2022-10-24T00:58:32.331Z,10.34
2022-10-24T01:01:00.389Z,10.30
2022-10-24T01:03:28.528Z,10.29
2022-10-24T01:06:28.627Z,10.22
2022-10-24T01:09:01.903Z,10.13
2022-10-24T01:11:38.942Z,10.12
2022-10-24T01:14:10.353Z,10.08
2022-10-24T01:16:39.860Z,10.04
2022-10-24T01:19:12.285Z,9.94
2022-10-24T01:21:42.183Z,10.04
2022-10-24T01:24:30.883Z,10.10
2022-10-24T01:27:22.397Z,10.08
2022-10-24T01:30:07.954Z,10.11
2022-10-24T01:32:42.370Z,10.07
2022-10-24T01:35:27.098Z,10.04
2022-10-24T01:37:58.572Z,10.06
2022-10-24T01:40:35.199Z,10.07
2022-10-24T01:43:06.956Z,10.09
2022-10-24T01:45:37.018Z,10.07
2022-10-24T01:48:06.886Z,10.06
2022-10-24T01:50:35.266Z,9.97
2022-10-24T01:53:03.224Z,9.90
2022-10-24T01:55:31.803Z,9.76
2022-10-24T01:57:59.792Z,9.80
2022-10-24T02:00:27.820Z,9.79
2022-10-24T02:02:58.407Z,9.76
2022-10-24T02:05:28.306Z,9.58
2022-10-24T02:07:57.686Z,9.67
2022-10-24T02:10:28.372Z,9.56
2022-10-24T02:12:59.064Z,9.64
2022-10-24T02:15:27.970Z,9.65
2022-10-24T02:17:57.270Z,9.63
2022-10-24T02:20:28.641Z,9.52
2022-10-24T02:22:59.091Z,9.63
2022-10-24T02:25:28.385Z,9.66
2022-10-24T02:27:58.228Z,9.62
2022-10-24T02:30:26.391Z,9.58
2022-10-24T02:32:56.772Z,9.57
2022-10-24T02:35:27.501Z,9.53
2022-10-24T02:37:59.055Z,9.51
2022-10-24T02:40:27.010Z,9.50
2022-10-24T02:42:56.285Z,9.31
2022-10-24T02:45:24.287Z,9.39
2022-10-24T02:47:52.606Z,9.33
2022-10-24T02:50:20.545Z,9.28
2022-10-24T02:52:49.925Z,9.26
2022-10-24T02:55:17.915Z,9.22
2022-10-24T02:57:45.887Z,9.16
2022-10-24T03:00:14.722Z,9.12
2022-10-24T03:02:42.782Z,9.06
2022-10-24T03:05:11.259Z,9.03
2022-10-24T03:07:39.241Z,9.00
2022-10-24T03:10:09.316Z,8.91
2022-10-24T03:12:37.301Z,8.89
2022-10-24T03:15:05.812Z,8.89
2022-10-24T03:17:33.779Z,8.90
2022-10-24T03:20:01.713Z,8.87
2022-10-24T03:22:30.570Z,8.84
2022-10-24T03:25:01.805Z,8.84
2022-10-24T03:27:31.195Z,8.79
2022-10-24T03:29:59.170Z,8.80
2022-10-24T03:34:59.952Z,8.82
2022-10-24T03:37:27.964Z,8.87
2022-10-24T03:39:55.916Z,8.88
2022-10-24T03:42:23.882Z,8.92
2022-10-24T03:44:53.192Z,9.01
2022-10-24T03:47:21.152Z,9.00
2022-10-24T03:49:49.114Z,8.91
2022-10-24T03:52:17.074Z,9.09
2022-10-24T03:54:45.057Z,9.13
2022-10-24T03:57:13.005Z,9.13
2022-10-24T03:59:41.001Z,9.16
2022-10-24T04:02:10.342Z,9.17
2022-10-24T04:04:38.324Z,9.09
2022-10-24T04:07:06.409Z,9.06
2022-10-24T04:09:34.479Z,9.05
2022-10-24T04:12:02.570Z,9.04
2022-10-24T04:14:30.560Z,9.05
2022-10-24T04:16:58.527Z,9.07
2022-10-24T04:19:27.902Z,9.10
